首页
METAR-TAF:

METAR-TAF

机场 :

Chetwynd, 不列颠哥伦比亚, 加拿大

纬度: 55-42N, 经度: 121-38W, 海拔: 609米

当前天气观测

该预报发布于44分钟前的13:00 UTC
风速2节,风向
温度 9°C
湿度 71%
气压 1018 hPa
能見度: 56.3公里
散云层高于5500英尺
多云层高于9000英尺
多云层高于10000英尺
阴天层高于20000英尺

METAR: CYCQ 221300Z 19002KT 35SM SCT055 BKN090 BKN100 OVC200 09/04 A3006 RMK SC3AC2AC2CI1 DEW VIRGA ALQDS SLP191

时间: 06:44 (13:44 UTC)


TAF: 丢失

超过4000个机场的气象观测和天气预报(METAR&TAF报告)。

可查询的气象台以黄色和红色小点在地图上表示。

将鼠标移到小点上方,可查看气象台名称。

然后点击查看天气观测和预报。

如需切换地图:点击带黑十字的绿色按钮放大地图;点击带横线的绿色按钮缩小地图;或者点击绿色箭头查看邻近地区的地图。


METAR-TAF: